Fruitvale (215) Station Data

Red Flag Warning: No
Fire Weather Zone: 250
SDGE Region: North East
Lat/Lon: 33.256/-116.982

Observations

Time Wind Speed/Gust Temp(F) RH Fuel Moist Fuel Temp(F) Dewpt(F) Tmax(F) Tmin(F) Accum Precip 10-min Precip SL Press(mb)
2/27 11:40pm 278 4 G 7 48° 94% - - 47° 51.9° 44° - - -
2/27 11:20pm 312 0 G 2 48° 94% - - 47° 51.9° 44° - - -
2/27 11:10pm 191 0 G 1 48° 94% - - 47° 51.9° 44° - - -
2/27 11:00pm 287 1 G 2 48° 94% - - 47° 51.9° 44° - - -
2/27 10:50pm 188 0 G 1 48° 94% - - 47° 51.9° 44° - - -
2/27 10:40pm 188 1 G 2 48° 94% - - 47° 51.9° 44° - - -
2/27 10:30pm 265 2 G 4 48° 94% - - 47° 51.9° 44° - - -
2/27 10:20pm 272 3 G 5 48° 94% - - 47° 51.9° 44° - - -
2/27 10:10pm 314 3 G 5 48° 94% - - 47° 51.9° 44° - - -
2/27 10:00pm 289 6 G 9 48° 94% - - 47° 51.9° 44° - - -
2/27 9:40pm 281 8 G 12 49° 94% - - 47° 51.9° 44° - - -
2/27 9:30pm 263 7 G 11 49° 94% - - 48° 51.9° 44° - - -
2/27 9:20pm 241 8 G 11 50° 94% - - 48° 51.9° 44° - - -
2/27 9:10pm 236 9 G 14 50° 94% - - 48° 51.9° 44° - - -
2/27 9:00pm 231 8 G 13 50° 94% - - 48° 51.9° 44° - - -
2/27 8:50pm 243 5 G 10 50° 94% - - 48° 51.9° 44° - - -
2/27 8:40pm 256 7 G 11 50° 94% - - 48° 51.9° 44° - - -
2/27 8:30pm 231 8 G 12 50° 94% - - 48° 51.9° 44° - - -
2/27 8:20pm 239 8 G 12 50° 94% - - 48° 51.9° 44° - - -
2/27 8:10pm 235 9 G 16 50° 94% - - 48° 51.9° 44° - - -
2/27 8:00pm 220 11 G 19 50° 94% - - 48° 51.9° 44° - - -
2/27 7:50pm 212 12 G 23 50° 94% - - 48° 51.9° 44° - - -
2/27 7:40pm 215 12 G 22 50° 94% - - 48° 51.9° 44° - - -
2/27 7:30pm 215 11 G 18 50° 94% - - 48° 51.9° 44° - - -
2/27 7:20pm 218 12 G 18 50° 94% - - 48° 51.9° 44° - - -
2/27 7:00pm 228 11 G 17 50° 93% - - 48° 51.9° 44° - - -
2/27 6:50pm 219 12 G 18 50° 93% - - 48° 51.9° 44° - - -
2/27 6:40pm 213 15 G 23 50° 93% - - 48° 51.9° 44° - - -
2/27 6:30pm 217 15 G 28 50° 93% - - 48° 51.9° 44° - - -
2/27 6:20pm 216 14 G 21 50° 93% - - 48° 51.9° 44° - - -
2/27 6:10pm 214 17 G 25 50° 93% - - 48° 51.9° 44° - - -
2/27 6:00pm 214 17 G 28 50° 93% - - 48° 51.9° 44° - - -
2/27 5:50pm 215 17 G 27 50° 93% - - 48° 51.9° 44° - - -
2/27 5:40pm 219 15 G 24 50° 93% - - 48° 51.9° 44° - - -
2/27 5:30pm 222 20 G 31 50° 93% - - 48° 51.9° 44° - - -
2/27 5:20pm 215 17 G 26 50° 94% - - 49° 51.9° 44° - - -
2/27 5:10pm 197 10 G 24 50° 94% - - 49° 51.9° 44° - - -
2/27 5:00pm 202 10 G 18 51° 93% - - 49° 51.9° 44° - - -
2/27 4:50pm 204 12 G 20 50° 93% - - 49° 51.9° 44° - - -
2/27 4:40pm 206 12 G 19 51° 92% - - 48° 51.9° 44° - - -
2/27 4:30pm 205 15 G 23 51° 92% - - 49° 51.9° 44° - - -
2/27 4:20pm 203 12 G 22 51° 92% - - 48° 51.9° 44° - - -
2/27 4:10pm 189 14 G 23 51° 92% - - 48° 51.9° 44° - - -
2/27 4:00pm 199 14 G 23 51° 92% - - 49° 51.9° 44° - - -
2/27 3:50pm 206 12 G 19 51° 92% - - 49° 51.9° 44° - - -
2/27 3:40pm 207 15 G 26 51° 91% - - 49° 51.9° 44° - - -
2/27 3:30pm 189 13 G 21 51° 92% - - 49° 51.9° 44° - - -
2/27 3:20pm 193 13 G 22 51° 92% - - 49° 51.9° 44° - - -
2/27 3:10pm 192 16 G 28 51° 92% - - 49° 51.9° 44° - - -
2/27 3:00pm 188 15 G 30 51° 92% - - 49° 51.9° 44° - - -
2/27 2:50pm 195 17 G 33 51° 93% - - 49° 51.9° 44° - - -
2/27 2:40pm 201 17 G 30 51° 93% - - 49° 51.9° 44° - - -
2/27 2:30pm 206 14 G 27 51° 93% - - 49° 51.9° 44° - - -
2/27 2:20pm 198 16 G 28 51° 93% - - 49° 51.9° 44° - - -
2/27 2:10pm 200 17 G 28 51° 93% - - 50° 51.9° 44° - - -
2/27 2:00pm 202 14 G 22 52° 93% - - 50° 51.9° 44° - - -
2/27 1:50pm 206 12 G 19 52° 94% - - 50° 51.9° 44° - - -
2/27 1:40pm 202 12 G 18 52° 94% - - 50° 51.9° 44° - - -
2/27 1:30pm 197 13 G 21 52° 94% - - 50° 51.9° 44° - - -
2/27 1:20pm 206 14 G 22 52° 93% - - 50° 51.9° 44° - - -
2/27 1:10pm 203 13 G 23 52° 93% - - 50° 51.9° 44° - - -
2/27 1:00pm 192 10 G 15 51° 93% - - 49° 51.9° 44° - - -
2/27 12:50pm 199 8 G 15 51° 93% - - 49° 51.9° 44° - - -
2/27 12:40pm 189 8 G 13 51° 93% - - 49° 51.9° 44° - - -
2/27 12:30pm 190 9 G 15 51° 93% - - 49° 51.9° 44° - - -
2/27 12:20pm 189 8 G 15 51° 93% - - 49° 51.9° 44° - - -
2/27 12:10pm 186 10 G 17 50° 94% - - 49° 51.9° 44° - - -
2/27 12:00pm 223 10 G 17 50° 93% - - 48° 51.9° 44° - - -
2/27 11:50am 221 12 G 18 50° 93% - - 48° 51.9° 44° - - -
2/27 11:40am 214 12 G 20 51° 93% - - 49° 51.9° 44° - - -
2/27 11:30am 207 11 G 20 51° 92% - - 49° 51.9° 44° - - -
2/27 11:20am 195 12 G 23 51° 92% - - 49° 51.9° 44° - - -
2/27 11:10am 192 11 G 18 51° 91% - - 49° 51.9° 44° - - -
2/27 11:00am 184 17 G 28 52° 93% - - 49° 51.9° 44° - - -
2/27 10:50am 178 15 G 27 51° 94% - - 50° 51.9° 44° - - -
2/27 10:40am 195 16 G 25 51° 94% - - 50° 51.9° 44° - - -
2/27 10:30am 198 13 G 19 52° 94% - - 50° 51.9° 44° - - -
2/27 10:20am 200 13 G 22 51° 94% - - 50° 51.9° 44° - - -
2/27 10:10am 203 12 G 20 51° 94% - - 50° 51.9° 44° - - -
2/27 10:00am 204 12 G 19 51° 94% - - 50° 51.9° 44° - - -
2/27 9:50am 211 10 G 18 52° 94% - - 50° 51.9° 44° - - -
2/27 9:40am 210 9 G 16 52° 95% - - 50° 51.9° 44° - - -
2/27 9:30am 209 8 G 16 52° 95% - - 50° 51.9° 44° - - -
2/27 9:20am 205 11 G 17 51° 95% - - 50° 51.9° 44° - - -
2/27 9:10am 204 10 G 17 52° 95% - - 50° 51.9° 44° - - -
2/27 9:00am 199 8 G 14 52° 95% - - 50° 51.9° 44° - - -
2/27 8:50am 201 9 G 17 52° 95% - - 50° 51.9° 44° - - -
2/27 8:40am 197 8 G 12 52° 95% - - 50° 51.9° 44° - - -
2/27 8:30am 197 8 G 12 52° 95% - - 50° 51.9° 44° - - -
2/27 8:20am 203 8 G 15 52° 95% - - 50° 51.8° 44° - - -
2/27 8:10am 204 8 G 16 52° 95% - - 50° 51.8° 44° - - -
2/27 8:00am 198 8 G 16 52° 95% - - 50° 51.8° 44° - - -
2/27 7:50am 197 7 G 12 51° 95% - - 50° 51.6° 44° - - -
2/27 7:40am 187 6 G 12 51° 95% - - 50° 51.5° 44° - - -
2/27 7:30am 191 7 G 12 51° 95% - - 50° 51.4° 44° - - -
2/27 7:20am 189 6 G 12 51° 95% - - 49° 51.2° 44° - - -
2/27 7:10am 177 7 G 10 51° 95% - - 49° 51.1° 44° - - -
2/27 7:00am 188 6 G 9 50° 95% - - 49° 50.8° 44° - - -
2/27 6:50am 172 5 G 8 50° 95% - - 48° 50.2° 44° - - -
2/27 6:40am 154 5 G 9 49° 94% - - 47° 49.4° 44° - - -
2/27 6:30am 135 5 G 9 48° 94% - - 47° 48.6° 44° - - -
2/27 6:20am 119 4 G 7 48° 94% - - 46° 48.6° 44° - - -
2/27 6:10am 108 4 G 6 48° 94% - - 46° 48.6° 44° - - -
2/27 6:00am 80 4 G 6 48° 94% - - 46° 48.6° 44° - - -
2/27 5:50am 72 3 G 5 47° 94% - - 46° 48.6° 44° - - -
2/27 5:40am 86 3 G 4 48° 94% - - 47° 48.6° 44° - - -
2/27 5:30am 85 2 G 4 48° 94% - - 47° 48.6° 44° - - -
2/27 5:20am 85 3 G 5 48° 94% - - 46° 48.6° 44° - - -
2/27 5:10am 129 3 G 7 48° 94% - - 47° 48.6° 44° - - -
2/27 5:00am 129 3 G 8 48° 94% - - 47° 48.6° 44° - - -
2/27 4:50am 94 2 G 4 48° 94% - - 47° 48.6° 44° - - -
2/27 4:40am 94 2 G 4 48° 94% - - 46° 48.2° 44° - - -
2/27 4:30am 28 3 G 4 47° 94% - - 46° 47.7° 44° - - -
2/27 4:20am 49 3 G 5 47° 94% - - 45° 47° 44° - - -
2/27 4:10am 63 4 G 5 47° 94% - - 45° 46.8° 44° - - -
2/27 4:00am 49 4 G 5 46° 94% - - 45° 46.7° 44° - - -
2/27 3:50am 57 4 G 5 46° 94% - - 44° 46.7° 44° - - -
2/27 3:40am 51 3 G 5 46° 94% - - 44° 46.7° 44° - - -
2/27 3:30am 45 3 G 4 46° 94% - - 44° 46.7° 44° - - -
2/27 3:20am 53 4 G 5 46° 94% - - 44° 46.7° 44° - - -
2/27 3:10am 60 4 G 5 46° 94% - - 44° 46.7° 44° - - -
2/27 3:00am 61 3 G 5 46° 94% - - 44° 46.7° 44° - - -
2/27 2:50am 43 3 G 4 45° 93% - - 44° 46.7° 44° - - -
2/27 2:40am 47 3 G 4 45° 93% - - 43° 46.7° 44° - - -
2/27 2:30am 50 4 G 5 45° 93% - - 43° 46.7° 44° - - -
2/27 2:20am 52 4 G 5 44° 92% - - 42° 46.7° 44° - - -
2/27 2:10am 55 4 G 5 45° 91% - - 42° 46.7° 44° - - -
2/27 2:00am 59 3 G 5 45° 89% - - 42° 46.7° 44° - - -
2/27 1:50am 56 3 G 5 46° 87% - - 42° 46.7° 44° - - -
2/27 1:40am 40 2 G 3 46° 85% - - 42° 46.7° 44° - - -
2/27 1:30am 92 2 G 3 46° 83% - - 41° 46.7° 44° - - -
2/27 1:20am 95 3 G 5 46° 80% - - 41° 46.7° 44° - - -
2/27 1:10am 70 2 G 5 46° 79% - - 40° 46.7° 44° - - -
2/27 1:00am 104 4 G 8 46° 76% - - 39° 46.6° 44° - - -
2/27 12:50am 60 4 G 6 46° 74% - - 38° 45.8° 44° - - -
2/27 12:40am 52 4 G 6 45° 75% - - 38° 45.7° 44° - - -
2/27 12:30am 57 4 G 6 45° 74% - - 37° 45.2° 44° - - -
2/27 12:20am 56 4 G 6 45° 74% - - 37° 45.1° 44° - - -
2/27 12:10am 74 3 G 5 44° 72% - - 36° 44.4° 44° - - -
2/27 12:00am 57 4 G 6 44° 71% - - 35° 51.1° 42.4° - - -
2/26 11:50pm 53 3 G 5 44° 72% - - 36° 51.1° 42.4° - - -
2/26 11:40pm 43 3 G 4 44° 73% - - 36° 51.1° 42.4° - - -
2/26 11:30pm 90 3 G 4 44° 73% - - 36° 51.1° 42.4° - - -
2/26 11:20pm 103 4 G 5 44° 72% - - 36° 51.1° 42.4° - - -
2/26 11:10pm 118 3 G 4 44° 73% - - 36° 51.1° 42.4° - - -
2/26 11:00pm 129 3 G 4 44° 74% - - 36° 51.1° 42.4° - - -
2/26 10:50pm 127 3 G 4 44° 75% - - 37° 51.1° 42.4° - - -
2/26 10:40pm 147 3 G 4 44° 75% - - 37° 51.1° 42.4° - - -
2/26 10:30pm 138 4 G 5 44° 75% - - 37° 51.1° 42.4° - - -
2/26 10:20pm 136 3 G 5 44° 77% - - 37° 51.1° 42.4° - - -
2/26 10:10pm 140 4 G 6 44° 78% - - 38° 51.1° 42.4° - - -
2/26 10:00pm 150 4 G 8 44° 80% - - 38° 51.1° 42.4° - - -
2/26 9:50pm 159 5 G 7 44° 81% - - 38° 51.1° 42.4° - - -
2/26 9:40pm 139 4 G 7 44° 81% - - 39° 51.1° 42.4° - - -
2/26 9:30pm 139 4 G 6 45° 81% - - 39° 51.1° 42.4° - - -
2/26 9:20pm 116 3 G 4 45° 81% - - 39° 51.1° 42.4° - - -
2/26 9:10pm 73 3 G 4 44° 84% - - 40° 51.1° 42.4° - - -
2/26 9:00pm 47 2 G 4 44° 85% - - 40° 51.1° 42.4° - - -
2/26 8:50pm 85 2 G 4 44° 86% - - 40° 51.1° 42.4° - - -
2/26 8:40pm 96 3 G 4 44° 86% - - 40° 51.1° 42.4° - - -
2/26 8:30pm 81 3 G 5 44° 86% - - 40° 51.1° 42.4° - - -
2/26 8:20pm 99 4 G 4 44° 85% - - 40° 51.1° 42.4° - - -
2/26 8:10pm 124 3 G 4 45° 85% - - 40° 51.1° 42.4° - - -
2/26 8:00pm 167 3 G 5 45° 85% - - 40° 51.1° 42.4° - - -
2/26 7:50pm 171 3 G 4 45° 85% - - 40° 51.1° 42.4° - - -
2/26 7:40pm 189 3 G 4 45° 85% - - 40° 51.1° 42.4° - - -
2/26 7:30pm 218 4 G 8 45° 84% - - 40° 51.1° 42.4° - - -
2/26 7:20pm 227 4 G 5 45° 85% - - 40° 51.1° 42.4° - - -
2/26 7:10pm 209 4 G 7 45° 85% - - 40° 51.1° 42.4° - - -
2/26 7:00pm 228 6 G 9 45° 84% - - 40° 51.1° 42.4° - - -
2/26 6:50pm 224 8 G 11 45° 83% - - 40° 51.1° 42.4° - - -
2/26 6:40pm 225 9 G 12 45° 82% - - 40° 51.1° 42.4° - - -
2/26 6:30pm 222 10 G 14 45° 82% - - 40° 51.1° 42.4° - - -
2/26 6:20pm 226 12 G 16 46° 81% - - 40° 51.1° 42.4° - - -
2/26 6:10pm 234 10 G 16 46° 85% - - 42° 51.1° 42.4° - - -
2/26 6:00pm 238 10 G 14 47° 87% - - 43° 51.1° 42.4° - - -
2/26 5:50pm 236 7 G 11 47° 87% - - 43° 51.1° 42.4° - - -
2/26 5:40pm 209 6 G 11 48° 83% - - 43° 51.1° 42.4° - - -
2/26 5:30pm 197 6 G 9 48° 80% - - 42° 51.1° 42.4° - - -
2/26 5:20pm 204 7 G 13 48° 80% - - 42° 51.1° 42.4° - - -
2/26 5:10pm 207 8 G 14 48° 81% - - 42° 51.1° 42.4° - - -
2/26 5:00pm 200 8 G 13 48° 81% - - 42° 51.1° 42.4° - - -